Time;durP1;ratioP1;P1;durP2;ratioP2;P2;SDS_P1;SDS_P2;PMS_P1;PMS_P2;Temp;Humidity;BMP_temperature;BMP_pressure;BME280_temperature;BME280_humidity;BME280_pressure;Samples;Min_cycle;Max_cycle;Signal;HPM_P1;HPM_P2
2023/07/23 00:02:00;;;;;;;8.20;3.20;;;18.60;99.90;;;;;;7295395;19;20304;-74
2023/07/23 00:04:26;;;;;;;11.13;3.40;;;18.70;99.90;;;;;;7282137;19;20668;-73
2023/07/23 00:06:52;;;;;;;7.60;3.23;;;18.70;99.90;;;;;;7283581;19;20594;-73
2023/07/23 00:09:17;;;;;;;10.00;2.90;;;18.60;99.90;;;;;;7281260;19;20191;-78
2023/07/23 00:11:43;;;;;;;9.97;3.63;;;18.60;99.90;;;;;;7282913;19;20743;-74
2023/07/23 00:14:08;;;;;;;8.37;2.90;;;18.50;99.90;;;;;;7304495;19;20632;-76
2023/07/23 00:16:34;;;;;;;8.47;3.07;;;18.50;99.90;;;;;;7284828;19;20181;-77
2023/07/23 00:19:03;;;;;;;10.57;3.20;;;18.50;99.90;;;;;;7296947;19;20206;-72
2023/07/23 00:21:31;;;;;;;9.60;3.37;;;18.50;99.90;;;;;;7302946;19;20212;-73
2023/07/23 00:23:57;;;;;;;8.87;3.07;;;18.60;99.90;;;;;;7302296;19;20196;-77
2023/07/23 00:26:34;;;;;;;8.97;3.00;;;18.50;99.90;;;;;;7300167;19;20216;-73
2023/07/23 00:29:00;;;;;;;6.97;2.90;;;18.70;99.90;;;;;;7298576;19;20206;-75
2023/07/23 00:31:28;;;;;;;9.53;3.07;;;18.60;99.90;;;;;;7301767;19;20197;-74
2023/07/23 00:33:54;;;;;;;9.53;3.40;;;18.60;99.90;;;;;;7296617;19;20191;-78
2023/07/23 00:36:20;;;;;;;6.67;2.40;;;18.70;99.90;;;;;;7297797;19;20241;-74
2023/07/23 00:38:46;;;;;;;7.03;2.80;;;18.70;99.90;;;;;;7298428;19;20196;-77
2023/07/23 00:41:12;;;;;;;6.67;3.10;;;18.80;99.90;;;;;;7290817;19;20249;-77
2023/07/23 00:43:38;;;;;;;9.23;2.83;;;18.90;99.90;;;;;;7302562;19;20200;-79
2023/07/23 00:46:03;;;;;;;7.13;2.60;;;18.90;99.90;;;;;;7285752;19;20186;-78
2023/07/23 00:48:29;;;;;;;8.17;3.20;;;19.00;99.90;;;;;;7286041;19;20258;-73
2023/07/23 00:50:55;;;;;;;7.50;2.73;;;19.10;99.90;;;;;;7289256;19;20203;-77
2023/07/23 00:53:21;;;;;;;5.30;2.70;;;19.10;99.90;;;;;;7298441;19;20663;-78
2023/07/23 00:55:48;;;;;;;6.10;2.93;;;19.20;99.90;;;;;;7299776;19;20190;-78
2023/07/23 00:58:14;;;;;;;6.90;2.87;;;19.40;99.90;;;;;;7292485;19;20188;-73
2023/07/23 01:00:40;;;;;;;6.90;2.70;;;19.40;99.90;;;;;;7308560;19;20190;-77
2023/07/23 01:03:06;;;;;;;10.17;3.17;;;19.50;99.90;;;;;;7307884;19;20196;-77
2023/07/23 01:05:34;;;;;;;6.27;2.80;;;19.50;99.90;;;;;;7300058;19;20202;-77
2023/07/23 01:08:07;;;;;;;8.63;2.90;;;19.60;99.90;;;;;;7299916;19;20175;-73
2023/07/23 01:10:35;;;;;;;5.63;2.87;;;19.70;99.90;;;;;;7303679;19;20632;-78
2023/07/23 01:13:04;;;;;;;7.00;3.00;;;19.70;99.90;;;;;;7300034;19;20186;-74
2023/07/23 01:15:33;;;;;;;9.37;3.10;;;19.70;99.90;;;;;;7300264;19;20189;-73
2023/07/23 01:18:00;;;;;;;9.10;2.50;;;19.80;99.90;;;;;;7296086;19;20195;-77
2023/07/23 01:20:26;;;;;;;7.53;3.20;;;19.80;99.90;;;;;;7288948;19;20195;-74
2023/07/23 01:22:54;;;;;;;7.97;2.83;;;19.90;99.90;;;;;;7288685;19;20322;-79
2023/07/23 01:25:20;;;;;;;6.77;3.00;;;20.00;99.90;;;;;;7290043;19;20189;-78
2023/07/23 01:27:46;;;;;;;8.70;3.00;;;20.00;99.90;;;;;;7291752;19;20195;-74
2023/07/23 01:30:12;;;;;;;10.80;3.00;;;20.00;99.90;;;;;;7315572;19;20980;-78
2023/07/23 01:32:39;;;;;;;8.70;3.10;;;20.10;99.90;;;;;;7290707;19;20183;-79
2023/07/23 01:35:14;;;;;;;10.37;2.90;;;20.10;99.90;;;;;;7290120;19;20195;-74
2023/07/23 01:37:45;;;;;;;9.20;3.07;;;20.10;99.90;;;;;;7293962;19;20488;-74
2023/07/23 01:40:11;;;;;;;12.13;3.03;;;20.10;99.90;;;;;;7279304;19;20197;-76
2023/07/23 01:42:40;;;;;;;6.13;3.00;;;20.00;99.90;;;;;;7318085;19;20202;-78
2023/07/23 01:45:06;;;;;;;7.30;2.97;;;20.00;99.90;;;;;;7300584;19;20226;-74
2023/07/23 01:47:50;;;;;;;9.93;3.10;;;20.00;99.90;;;;;;7191956;19;2004801;-73
2023/07/23 01:50:16;;;;;;;6.03;2.87;;;19.90;99.90;;;;;;7290677;19;20204;-74
2023/07/23 01:52:42;;;;;;;7.13;2.80;;;19.90;99.90;;;;;;7287499;19;20199;-75
2023/07/23 01:55:08;;;;;;;6.60;3.13;;;19.90;99.90;;;;;;7308811;19;20194;-78
2023/07/23 01:57:35;;;;;;;7.07;3.00;;;19.90;99.90;;;;;;7285130;19;20192;-74
2023/07/23 02:00:03;;;;;;;7.83;2.93;;;19.90;99.90;;;;;;7279481;19;20197;-75
2023/07/23 02:02:38;;;;;;;6.33;3.10;;;19.90;99.90;;;;;;7278424;19;20204;-74
2023/07/23 02:05:04;;;;;;;6.73;2.80;;;19.80;99.90;;;;;;7277413;19;20270;-79
2023/07/23 02:07:30;;;;;;;9.30;3.20;;;19.70;99.90;;;;;;7278067;19;20196;-74
2023/07/23 02:09:56;;;;;;;6.73;3.13;;;19.70;99.90;;;;;;7276363;19;20215;-79
2023/07/23 02:12:21;;;;;;;7.40;3.10;;;19.60;99.90;;;;;;7275782;19;20201;-79
2023/07/23 02:14:47;;;;;;;10.40;2.90;;;19.70;99.90;;;;;;7284922;19;20183;-74
2023/07/23 02:17:13;;;;;;;10.10;3.20;;;19.60;99.90;;;;;;7284227;19;20186;-74
2023/07/23 02:19:42;;;;;;;10.40;2.83;;;19.60;99.90;;;;;;7283565;19;20548;-79
2023/07/23 02:22:07;;;;;;;7.23;2.93;;;19.60;99.90;;;;;;7307189;19;20186;-79
2023/07/23 02:24:33;;;;;;;8.43;3.03;;;19.50;99.90;;;;;;7286374;19;20187;-74
2023/07/23 02:27:01;;;;;;;6.80;2.60;;;19.50;99.90;;;;;;7285497;19;20583;-74
2023/07/23 02:29:26;;;;;;;10.77;2.80;;;19.50;99.90;;;;;;7284425;19;20196;-78
2023/07/23 02:31:52;;;;;;;7.17;2.63;;;19.50;99.90;;;;;;7288036;19;20189;-73
2023/07/23 02:34:18;;;;;;;6.23;2.93;;;19.40;99.90;;;;;;7281948;19;20226;-73
2023/07/23 02:36:47;;;;;;;9.77;3.00;;;19.40;99.90;;;;;;7283248;19;20206;-73
2023/07/23 02:39:13;;;;;;;11.33;3.00;;;19.30;99.90;;;;;;7285802;19;20233;-73
2023/07/23 02:41:40;;;;;;;9.63;3.03;;;19.40;99.90;;;;;;7310182;19;20202;-76
2023/07/23 02:44:06;;;;;;;6.03;2.60;;;19.40;99.90;;;;;;7306182;19;20577;-74
2023/07/23 02:46:32;;;;;;;7.10;2.80;;;19.30;99.90;;;;;;7288931;19;20844;-78
2023/07/23 02:48:59;;;;;;;6.83;2.70;;;19.30;99.90;;;;;;7285023;19;20200;-73
2023/07/23 02:51:24;;;;;;;9.47;2.90;;;19.20;99.90;;;;;;7282590;19;20600;-73
2023/07/23 02:53:52;;;;;;;7.93;2.80;;;19.30;99.90;;;;;;7284004;19;20671;-77
2023/07/23 02:56:18;;;;;;;10.07;2.97;;;19.20;99.90;;;;;;7283849;19;20354;-73
2023/07/23 02:58:44;;;;;;;7.97;3.17;;;19.30;99.90;;;;;;7287819;19;20188;-78
2023/07/23 03:01:12;;;;;;;6.70;2.97;;;19.30;99.90;;;;;;7312549;19;20197;-73
2023/07/23 03:03:38;;;;;;;8.87;2.60;;;19.30;99.90;;;;;;7284727;19;20196;-77
2023/07/23 03:06:08;;;;;;;11.17;2.90;;;19.30;99.90;;;;;;7286685;19;20205;-78
2023/07/23 03:08:34;;;;;;;9.40;2.73;;;19.20;99.90;;;;;;7286665;19;20194;-75
2023/07/23 03:11:00;;;;;;;10.83;2.70;;;19.30;99.90;;;;;;7288870;19;20224;-73
2023/07/23 03:13:26;;;;;;;8.03;3.07;;;19.30;99.90;;;;;;7280255;19;20214;-74
2023/07/23 03:15:52;;;;;;;6.80;2.57;;;19.40;99.90;;;;;;7280975;19;20184;-73
2023/07/23 03:18:17;;;;;;;7.63;2.70;;;19.30;99.90;;;;;;7280625;19;20672;-74
2023/07/23 03:20:43;;;;;;;4.93;2.60;;;19.30;99.90;;;;;;7283665;19;20181;-78
2023/07/23 03:23:09;;;;;;;5.90;2.73;;;19.30;99.90;;;;;;7303485;19;20192;-73
2023/07/23 03:25:35;;;;;;;6.47;2.53;;;19.30;99.90;;;;;;7283799;19;20282;-78
2023/07/23 03:28:02;;;;;;;6.67;2.40;;;19.20;99.90;;;;;;7287195;19;20265;-78
2023/07/23 03:30:28;;;;;;;5.63;2.63;;;19.20;99.90;;;;;;7289179;19;20201;-73
2023/07/23 03:32:55;;;;;;;8.93;3.13;;;19.20;99.90;;;;;;7281401;19;20215;-74
2023/07/23 03:35:23;;;;;;;12.53;3.23;;;19.20;99.90;;;;;;7286655;19;20185;-78
2023/07/23 03:37:49;;;;;;;16.67;3.07;;;19.20;99.90;;;;;;7287382;19;20189;-78
2023/07/23 03:40:15;;;;;;;6.43;2.70;;;19.30;99.90;;;;;;7284779;19;21073;-74
2023/07/23 03:42:41;;;;;;;7.60;2.67;;;19.20;99.90;;;;;;7292971;19;20193;-74
2023/07/23 03:45:08;;;;;;;7.83;2.70;;;19.20;99.90;;;;;;7304958;19;20199;-78
2023/07/23 03:47:34;;;;;;;5.40;2.50;;;19.20;99.90;;;;;;7272430;19;20697;-73
2023/07/23 03:50:00;;;;;;;6.57;2.80;;;19.10;99.90;;;;;;7275750;19;25324;-79
2023/07/23 03:52:25;;;;;;;6.77;2.80;;;19.10;99.90;;;;;;7285722;19;20200;-78
2023/07/23 03:54:51;;;;;;;6.93;2.70;;;19.00;99.90;;;;;;7286995;19;20648;-78
2023/07/23 03:57:17;;;;;;;5.43;2.40;;;19.10;99.90;;;;;;7283277;19;20200;-78
2023/07/23 03:59:45;;;;;;;8.30;2.70;;;19.10;99.90;;;;;;7285785;19;20712;-77
2023/07/23 04:02:11;;;;;;;9.97;2.70;;;19.10;99.90;;;;;;7300956;19;20207;-74
2023/07/23 04:04:38;;;;;;;8.43;2.60;;;19.20;99.90;;;;;;7307600;19;20193;-74
2023/07/23 04:07:05;;;;;;;6.00;2.73;;;19.30;99.90;;;;;;7285461;19;20199;-78
2023/07/23 04:09:31;;;;;;;5.27;2.57;;;19.30;99.90;;;;;;7287330;19;20562;-77
2023/07/23 04:11:58;;;;;;;8.97;3.20;;;19.20;99.90;;;;;;7282267;19;20671;-77
2023/07/23 04:14:24;;;;;;;5.57;2.80;;;19.20;99.90;;;;;;7282595;19;20207;-77
2023/07/23 04:16:50;;;;;;;6.33;2.60;;;19.20;99.90;;;;;;7286964;19;20750;-78
2023/07/23 04:19:16;;;;;;;5.03;2.50;;;19.20;99.90;;;;;;7294263;19;20257;-73
2023/07/23 04:21:42;;;;;;;8.43;2.40;;;19.10;99.90;;;;;;7294121;19;20770;-77
2023/07/23 04:24:10;;;;;;;7.40;3.10;;;19.10;99.90;;;;;;7308374;19;20207;-79
2023/07/23 04:26:36;;;;;;;7.30;2.83;;;19.00;99.90;;;;;;7288990;19;20219;-74
2023/07/23 04:29:02;;;;;;;5.93;2.63;;;19.00;99.90;;;;;;7291350;19;20185;-78
2023/07/23 04:31:29;;;;;;;6.53;2.73;;;19.00;99.90;;;;;;7289675;19;20252;-78
2023/07/23 04:33:55;;;;;;;6.47;2.80;;;18.90;99.90;;;;;;7281669;19;20799;-74
2023/07/23 04:36:20;;;;;;;8.13;3.20;;;19.00;99.90;;;;;;7279042;19;20213;-79
2023/07/23 04:38:46;;;;;;;8.17;3.27;;;19.00;99.90;;;;;;7281817;19;20193;-74
2023/07/23 04:41:12;;;;;;;8.03;3.20;;;19.00;99.90;;;;;;7282472;19;20214;-74
2023/07/23 04:43:39;;;;;;;7.07;3.00;;;19.00;99.90;;;;;;7306500;19;20186;-78
2023/07/23 04:46:05;;;;;;;9.27;3.53;;;19.00;99.90;;;;;;7286821;19;20192;-79
2023/07/23 04:48:35;;;;;;;9.17;3.50;;;18.80;99.90;;;;;;7284655;19;20274;-78
2023/07/23 04:51:04;;;;;;;10.57;3.67;;;18.80;99.90;;;;;;7284887;19;20919;-79
2023/07/23 04:53:30;;;;;;;8.97;3.70;;;18.80;99.90;;;;;;7271336;19;20195;-78
2023/07/23 04:55:57;;;;;;;9.30;3.70;;;18.90;99.90;;;;;;7281223;19;20196;-79
2023/07/23 04:58:25;;;;;;;9.67;3.70;;;19.00;99.90;;;;;;7281513;19;20205;-77
2023/07/23 05:00:52;;;;;;;10.03;3.83;;;18.90;99.90;;;;;;7281555;19;20188;-74
2023/07/23 05:03:20;;;;;;;10.70;3.47;;;18.80;99.90;;;;;;7279805;19;20197;-77
2023/07/23 05:05:51;;;;;;;8.07;3.67;;;18.90;99.90;;;;;;7267333;19;20184;-73
2023/07/23 05:08:20;;;;;;;13.17;4.27;;;18.80;99.90;;;;;;7303823;19;20184;-74
2023/07/23 05:10:47;;;;;;;8.83;3.70;;;18.90;99.90;;;;;;7289619;19;20195;-78
2023/07/23 05:13:13;;;;;;;10.27;3.60;;;19.00;99.90;;;;;;7304382;19;20203;-77
2023/07/23 05:15:39;;;;;;;8.67;3.83;;;18.90;99.90;;;;;;7298317;19;20188;-80
2023/07/23 05:18:05;;;;;;;8.67;3.80;;;18.90;99.90;;;;;;7282526;19;20236;-74
2023/07/23 05:20:31;;;;;;;9.77;4.13;;;19.00;99.90;;;;;;7284621;19;21628;-78
2023/07/23 05:22:57;;;;;;;8.37;3.60;;;18.90;99.90;;;;;;7303224;19;20188;-77
2023/07/23 05:25:23;;;;;;;10.23;3.80;;;18.90;99.90;;;;;;7282544;19;20209;-77
2023/07/23 05:27:50;;;;;;;10.37;3.67;;;18.90;99.90;;;;;;7278211;19;20184;-73
2023/07/23 05:30:16;;;;;;;9.20;4.37;;;18.80;99.90;;;;;;7278770;19;20250;-73
2023/07/23 05:32:42;;;;;;;8.83;4.30;;;18.80;99.90;;;;;;7285889;19;20653;-77
2023/07/23 05:35:08;;;;;;;10.17;4.60;;;18.80;99.90;;;;;;7305642;19;20419;-73
2023/07/23 05:37:34;;;;;;;9.87;4.77;;;18.80;99.90;;;;;;7280842;19;20658;-78
2023/07/23 05:39:59;;;;;;;11.30;4.67;;;18.70;99.90;;;;;;7282925;19;20230;-78
2023/07/23 05:42:25;;;;;;;10.67;4.97;;;18.80;99.90;;;;;;7282732;19;20192;-78
2023/07/23 05:44:51;;;;;;;11.37;5.57;;;18.70;99.90;;;;;;7281438;19;21003;-78
2023/07/23 05:47:16;;;;;;;13.27;5.57;;;18.50;99.90;;;;;;7286570;19;20213;-78
2023/07/23 05:49:42;;;;;;;15.83;5.97;;;18.40;99.90;;;;;;7288707;19;20197;-74
2023/07/23 05:52:08;;;;;;;13.03;5.67;;;18.30;99.90;;;;;;7305469;19;20240;-78
2023/07/23 05:54:33;;;;;;;13.63;6.17;;;18.40;99.90;;;;;;7292836;19;20393;-73
2023/07/23 05:57:02;;;;;;;14.97;5.43;;;18.30;99.90;;;;;;7294491;19;20185;-73
2023/07/23 05:59:31;;;;;;;13.07;5.47;;;18.20;99.90;;;;;;7291841;19;20299;-73
2023/07/23 06:01:57;;;;;;;14.73;6.17;;;18.10;99.90;;;;;;7293455;19;20223;-78
2023/07/23 06:04:23;;;;;;;10.37;5.10;;;18.10;99.90;;;;;;7291794;19;20629;-79
2023/07/23 06:06:50;;;;;;;11.33;5.93;;;18.00;99.90;;;;;;7286386;19;20193;-78
2023/07/23 06:09:17;;;;;;;12.97;5.67;;;17.90;99.90;;;;;;7289445;19;20252;-78
2023/07/23 06:11:43;;;;;;;14.43;6.20;;;17.90;99.90;;;;;;7289196;19;20188;-78
2023/07/23 06:14:09;;;;;;;13.93;6.43;;;18.00;99.90;;;;;;7310355;19;20208;-78
2023/07/23 06:16:34;;;;;;;11.90;6.00;;;17.80;99.90;;;;;;7291195;19;20181;-79
2023/07/23 06:19:00;;;;;;;12.67;6.43;;;17.70;99.90;;;;;;7288848;19;20226;-79
2023/07/23 06:21:26;;;;;;;12.80;6.43;;;17.80;99.90;;;;;;7290619;19;20495;-79
2023/07/23 06:23:52;;;;;;;12.83;6.10;;;17.60;99.90;;;;;;7286341;19;20252;-79
2023/07/23 06:26:18;;;;;;;10.93;5.70;;;17.50;99.90;;;;;;7287103;19;20181;-79
2023/07/23 06:28:44;;;;;;;13.40;6.10;;;17.50;99.90;;;;;;7286568;19;20196;-78
2023/07/23 06:31:09;;;;;;;15.67;6.97;;;17.50;99.90;;;;;;7309730;19;20211;-80
2023/07/23 06:33:35;;;;;;;11.30;5.90;;;17.60;99.90;;;;;;7286961;19;20192;-79
2023/07/23 06:36:02;;;;;;;12.27;5.90;;;17.40;99.90;;;;;;7287735;19;20309;-79
2023/07/23 06:38:28;;;;;;;13.23;6.13;;;17.30;99.90;;;;;;7288365;19;20187;-79
2023/07/23 06:40:55;;;;;;;13.07;6.07;;;17.20;99.90;;;;;;7285633;19;20189;-79
2023/07/23 06:43:22;;;;;;;15.83;6.40;;;17.00;99.90;;;;;;7289697;19;20712;-79
2023/07/23 06:45:49;;;;;;;11.73;5.80;;;16.90;99.90;;;;;;7288025;19;20192;-79
2023/07/23 06:48:16;;;;;;;13.43;6.90;;;16.90;99.90;;;;;;7286695;19;20206;-78
2023/07/23 06:50:46;;;;;;;11.93;5.83;;;17.00;99.90;;;;;;7290684;19;20637;-77
2023/07/23 06:53:12;;;;;;;12.47;6.10;;;16.90;99.90;;;;;;7301475;19;20256;-78
2023/07/23 06:55:58;;;;;;;17.00;5.87;;;16.90;99.90;;;;;;7309647;19;20874;-79
2023/07/23 06:58:24;;;;;;;13.50;5.70;;;16.80;99.90;;;;;;7185161;19;2005165;-78
2023/07/23 07:00:50;;;;;;;13.00;5.73;;;16.80;99.90;;;;;;7289009;19;20198;-79
2023/07/23 07:03:15;;;;;;;13.83;5.90;;;16.80;99.90;;;;;;7285596;19;20340;-78
2023/07/23 07:05:41;;;;;;;11.70;5.70;;;16.80;99.90;;;;;;7306950;19;20305;-73
2023/07/23 07:08:08;;;;;;;12.23;5.70;;;17.00;99.90;;;;;;7309710;19;20192;-74
2023/07/23 07:10:34;;;;;;;14.47;6.43;;;16.90;99.90;;;;;;7288865;19;20188;-80
2023/07/23 07:13:00;;;;;;;12.43;5.30;;;17.00;99.90;;;;;;7290288;19;20217;-74
2023/07/23 07:15:26;;;;;;;11.83;5.53;;;17.10;99.90;;;;;;7290620;19;20298;-78
2023/07/23 07:17:52;;;;;;;12.93;5.53;;;16.90;99.90;;;;;;7288505;19;20563;-77
2023/07/23 07:20:17;;;;;;;11.97;5.97;;;16.80;99.90;;;;;;7286998;19;20658;-74
2023/07/23 07:22:43;;;;;;;12.87;6.00;;;16.90;99.90;;;;;;7280809;19;20216;-72
2023/07/23 07:25:09;;;;;;;11.73;5.67;;;16.90;99.90;;;;;;7301693;19;20211;-73
2023/07/23 07:27:34;;;;;;;14.30;6.07;;;16.70;99.90;;;;;;7280625;19;20520;-74
2023/07/23 07:30:00;;;;;;;13.63;6.00;;;16.80;99.90;;;;;;7286371;19;20205;-74
2023/07/23 07:32:26;;;;;;;12.97;5.87;;;16.90;99.90;;;;;;7281636;19;20189;-74
2023/07/23 07:34:52;;;;;;;12.63;5.70;;;16.90;99.90;;;;;;7283931;19;20263;-73
2023/07/23 07:37:17;;;;;;;13.27;6.20;;;16.80;99.90;;;;;;7280250;19;20700;-73
2023/07/23 07:39:43;;;;;;;12.90;6.17;;;16.90;99.90;;;;;;7282625;19;20915;-77
2023/07/23 07:42:11;;;;;;;11.87;5.27;;;17.00;99.90;;;;;;7320706;19;20758;-77
2023/07/23 07:44:37;;;;;;;11.77;5.17;;;17.00;99.90;;;;;;7279826;19;20188;-74
2023/07/23 07:47:03;;;;;;;13.43;5.87;;;17.00;99.90;;;;;;7296008;19;20206;-77
2023/07/23 07:49:28;;;;;;;12.23;5.40;;;17.00;99.90;;;;;;7294114;19;20188;-77
2023/07/23 07:51:54;;;;;;;14.50;6.30;;;16.90;99.90;;;;;;7289854;19;20236;-73
2023/07/23 07:54:20;;;;;;;12.47;5.47;;;16.90;99.90;;;;;;7295866;19;20290;-77
2023/07/23 07:56:49;;;;;;;12.80;5.70;;;17.00;99.90;;;;;;7293382;19;20201;-73
2023/07/23 07:59:16;;;;;;;12.50;6.13;;;17.10;99.90;;;;;;7286898;19;20190;-72
2023/07/23 08:01:44;;;;;;;12.40;5.57;;;17.20;99.90;;;;;;7300031;19;20205;-74
2023/07/23 08:04:10;;;;;;;10.50;4.87;;;17.30;99.90;;;;;;7306528;19;20245;-72
2023/07/23 08:06:38;;;;;;;11.97;5.67;;;17.20;99.90;;;;;;7281723;19;20177;-72
2023/07/23 08:09:07;;;;;;;14.97;5.73;;;17.20;99.90;;;;;;7285852;19;20269;-73
2023/07/23 08:11:34;;;;;;;9.90;5.40;;;17.40;99.90;;;;;;7280853;19;20264;-73
2023/07/23 08:14:00;;;;;;;10.47;4.87;;;17.50;99.90;;;;;;7281156;19;20181;-74
2023/07/23 08:16:26;;;;;;;11.13;5.20;;;17.50;99.90;;;;;;7280588;19;20274;-73
2023/07/23 08:18:52;;;;;;;11.17;4.80;;;17.60;99.90;;;;;;7279206;19;20268;-73
2023/07/23 08:21:18;;;;;;;11.90;5.23;;;17.50;99.90;;;;;;7285950;19;20629;-74
2023/07/23 08:23:45;;;;;;;10.60;4.73;;;17.60;99.90;;;;;;7291446;19;20185;-77
2023/07/23 08:26:13;;;;;;;9.50;4.57;;;17.60;99.90;;;;;;7303799;19;20185;-76
2023/07/23 08:28:44;;;;;;;13.63;5.63;;;17.50;99.90;;;;;;7284069;19;20229;-78
2023/07/23 08:31:10;;;;;;;10.47;4.70;;;17.60;99.90;;;;;;7287711;19;20623;-78
2023/07/23 08:33:41;;;;;;;9.40;4.63;;;17.50;99.90;;;;;;7284821;19;20254;-78
2023/07/23 08:36:07;;;;;;;10.57;5.17;;;17.50;99.90;;;;;;7290530;19;20220;-74
2023/07/23 08:38:33;;;;;;;10.13;4.90;;;17.70;99.90;;;;;;7278222;19;20197;-74
2023/07/23 08:41:02;;;;;;;10.60;4.90;;;17.70;99.90;;;;;;7279320;19;20294;-74
2023/07/23 08:43:52;;;;;;;12.20;5.03;;;17.60;99.90;;;;;;7277112;19;20826;-73
2023/07/23 08:46:21;;;;;;;11.33;4.87;;;17.70;99.90;;;;;;7182913;19;2004948;-78
2023/07/23 08:48:58;;;;;;;9.33;5.03;;;17.50;99.90;;;;;;7280827;19;20184;-78
2023/07/23 08:51:32;;;;;;;10.40;5.20;;;17.50;99.90;;;;;;7283329;19;20180;-78
2023/07/23 08:54:00;;;;;;;9.93;5.60;;;17.50;99.90;;;;;;7284048;19;20230;-78
2023/07/23 08:56:26;;;;;;;11.00;5.27;;;17.70;99.90;;;;;;7282893;19;20190;-78
2023/07/23 08:58:54;;;;;;;10.67;5.33;;;17.80;99.90;;;;;;7283212;19;20619;-78
2023/07/23 09:01:20;;;;;;;14.40;5.90;;;18.00;99.90;;;;;;7283510;19;20257;-78
2023/07/23 09:03:47;;;;;;;11.47;5.30;;;18.30;99.90;;;;;;7283122;19;20192;-78
2023/07/23 09:06:13;;;;;;;14.47;6.60;;;18.40;99.90;;;;;;7288083;19;20272;-78
2023/07/23 09:08:38;;;;;;;10.63;5.43;;;18.60;99.90;;;;;;7301761;19;20668;-74
2023/07/23 09:11:06;;;;;;;10.30;4.97;;;18.60;99.90;;;;;;7278850;19;20330;-73
2023/07/23 09:13:33;;;;;;;12.27;5.63;;;18.60;99.90;;;;;;7280193;19;20185;-73
2023/07/23 09:16:00;;;;;;;9.33;5.30;;;18.50;99.90;;;;;;7279381;19;20192;-78
2023/07/23 09:18:25;;;;;;;9.03;5.20;;;18.70;99.90;;;;;;7283534;19;20214;-78
2023/07/23 09:20:51;;;;;;;9.07;5.00;;;18.70;99.90;;;;;;7281876;19;20219;-77
2023/07/23 09:23:18;;;;;;;10.40;5.13;;;18.70;99.90;;;;;;7286777;19;20185;-77
2023/07/23 09:25:44;;;;;;;12.43;5.03;;;18.80;99.90;;;;;;7280630;19;20275;-72
2023/07/23 09:28:30;;;;;;;10.03;4.80;;;19.00;99.90;;;;;;7300059;19;20299;-72
2023/07/23 09:30:58;;;;;;;9.50;4.90;;;19.30;99.90;;;;;;7170373;19;2006160;-73
2023/07/23 09:33:34;;;;;;;9.23;4.90;;;19.30;99.90;;;;;;7282795;19;20688;-73
2023/07/23 09:36:02;;;;;;;10.00;4.97;;;19.30;99.90;;;;;;7282071;19;20200;-73
2023/07/23 09:38:28;;;;;;;10.17;4.13;;;19.40;99.90;;;;;;7280504;19;20526;-77
2023/07/23 09:40:55;;;;;;;9.83;4.67;;;19.60;99.90;;;;;;7283993;19;20228;-78
2023/07/23 09:43:24;;;;;;;9.00;4.40;;;19.60;99.90;;;;;;7283275;19;21484;-73
2023/07/23 09:45:50;;;;;;;9.97;4.50;;;19.50;99.90;;;;;;7281617;19;20291;-72
2023/07/23 09:48:17;;;;;;;9.57;4.70;;;19.50;99.90;;;;;;7283291;19;20205;-73
2023/07/23 09:50:44;;;;;;;10.43;4.93;;;19.70;99.90;;;;;;7284585;19;20205;-74
2023/07/23 09:53:12;;;;;;;9.10;4.57;;;19.90;99.90;;;;;;7307730;19;20193;-73
2023/07/23 09:55:40;;;;;;;8.50;4.43;;;20.20;99.90;;;;;;7287190;19;20195;-77
2023/07/23 09:58:06;;;;;;;10.57;4.80;;;20.50;99.90;;;;;;7289076;19;20254;-78
2023/07/23 10:00:33;;;;;;;11.77;4.83;;;20.90;99.90;;;;;;7288508;19;20189;-78
2023/07/23 10:03:00;;;;;;;11.00;4.60;;;21.10;99.90;;;;;;7287440;19;20220;-77
2023/07/23 10:05:27;;;;;;;8.80;4.13;;;21.40;99.90;;;;;;7287194;19;20200;-74
2023/07/23 10:07:53;;;;;;;9.53;4.37;;;21.50;99.90;;;;;;7281857;19;20206;-72
2023/07/23 10:10:20;;;;;;;8.50;4.20;;;21.70;99.90;;;;;;7285413;19;20660;-77
2023/07/23 10:12:46;;;;;;;8.97;4.50;;;21.80;99.90;;;;;;7289406;19;20193;-72
2023/07/23 10:15:12;;;;;;;10.60;4.40;;;22.40;99.90;;;;;;7293093;19;20572;-72
2023/07/23 10:17:41;;;;;;;10.20;4.43;;;22.40;99.90;;;;;;7305703;19;20692;-76
2023/07/23 10:20:10;;;;;;;7.17;3.80;;;22.40;99.90;;;;;;7284566;19;20184;-77
2023/07/23 10:22:37;;;;;;;9.03;4.00;;;22.40;99.90;;;;;;7283457;19;20189;-76
2023/07/23 10:25:21;;;;;;;8.37;4.00;;;22.40;99.90;;;;;;7283597;19;20283;-77
2023/07/23 10:28:06;;;;;;;11.87;4.10;;;22.10;99.90;;;;;;7182602;19;2005105;-79
2023/07/23 10:30:41;;;;;;;9.23;4.40;;;21.60;99.90;;;;;;7286610;19;20277;-77
2023/07/23 10:33:10;;;;;;;11.17;4.80;;;21.50;99.90;;;;;;7284375;19;20216;-78
2023/07/23 10:36:02;;;;;;;8.53;4.40;;;21.70;99.90;;;;;;7286062;19;20199;-79
2023/07/23 10:38:33;;;;;;;8.67;4.40;;;21.60;99.90;;;;;;7182566;19;2004645;-78
2023/07/23 10:40:59;;;;;;;10.03;4.50;;;21.80;99.90;;;;;;7284988;19;20526;-78
2023/07/23 10:43:41;;;;;;;8.50;4.40;;;22.10;99.90;;;;;;7285706;19;20207;-78
2023/07/23 10:46:14;;;;;;;8.57;4.00;;;22.50;99.90;;;;;;7284904;19;20188;-77
2023/07/23 10:48:44;;;;;;;9.83;4.50;;;23.00;99.90;;;;;;7285878;19;20188;-77
2023/07/23 10:51:12;;;;;;;10.50;4.40;;;22.90;99.90;;;;;;7284566;19;20184;-78
2023/07/23 10:53:40;;;;;;;10.17;4.53;;;23.10;99.90;;;;;;7283670;19;20181;-78
2023/07/23 10:56:40;;;;;;;8.63;3.90;;;23.30;99.90;;;;;;7284218;19;20204;-78
2023/07/23 10:59:13;;;;;;;7.27;3.80;;;23.30;99.90;;;;;;7183146;19;2005198;-79
2023/07/23 11:01:44;;;;;;;9.60;4.37;;;23.60;99.90;;;;;;7287580;19;20198;-78
2023/07/23 11:04:15;;;;;;;8.53;4.47;;;23.80;99.90;;;;;;7285845;19;20185;-79
2023/07/23 11:07:04;;;;;;;7.60;3.93;;;23.50;99.90;;;;;;7291339;19;20208;-74
2023/07/23 11:09:35;;;;;;;8.73;3.83;;;23.60;99.90;;;;;;7292039;19;20233;-78
2023/07/23 11:12:05;;;;;;;9.00;4.10;;;23.40;99.90;;;;;;7278619;19;20189;-79
2023/07/23 11:14:34;;;;;;;8.00;4.10;;;23.50;99.90;;;;;;7289855;19;20181;-78
2023/07/23 11:17:02;;;;;;;8.27;3.77;;;23.60;99.90;;;;;;7292766;19;20192;-78
2023/07/23 11:19:29;;;;;;;6.93;3.47;;;23.60;99.90;;;;;;7286929;19;20532;-77
2023/07/23 11:22:00;;;;;;;8.47;3.33;;;23.70;99.90;;;;;;7285239;19;20180;-78
2023/07/23 11:24:29;;;;;;;7.13;3.60;;;23.60;99.90;;;;;;7298692;19;20249;-73
2023/07/23 11:27:01;;;;;;;5.23;2.97;;;23.80;99.90;;;;;;7293507;19;20193;-77
2023/07/23 11:29:28;;;;;;;7.20;3.30;;;23.80;99.90;;;;;;7287567;19;20656;-77
2023/07/23 11:31:55;;;;;;;7.90;3.53;;;23.90;99.90;;;;;;7285255;19;20185;-77
2023/07/23 11:34:22;;;;;;;6.43;3.40;;;24.10;99.90;;;;;;7282442;19;20185;-77
2023/07/23 11:36:52;;;;;;;8.10;3.47;;;23.80;99.90;;;;;;7284420;19;20205;-77
2023/07/23 11:39:23;;;;;;;7.47;3.63;;;23.80;99.90;;;;;;7286377;19;20599;-75
2023/07/23 11:41:50;;;;;;;8.37;3.40;;;23.70;99.90;;;;;;7289565;19;20197;-78
2023/07/23 11:44:16;;;;;;;6.03;3.17;;;23.10;99.90;;;;;;7285064;19;20185;-79
2023/07/23 11:46:42;;;;;;;7.73;3.37;;;23.00;99.90;;;;;;7302874;19;20220;-77
2023/07/23 11:49:10;;;;;;;7.13;3.63;;;23.10;99.90;;;;;;7305608;19;20185;-78
2023/07/23 11:51:37;;;;;;;5.60;3.17;;;23.40;99.90;;;;;;7288033;19;20613;-78
2023/07/23 11:54:07;;;;;;;6.67;3.00;;;23.80;99.90;;;;;;7284772;19;20174;-78
2023/07/23 11:56:46;;;;;;;7.80;2.90;;;24.30;99.90;;;;;;7288095;19;20304;-78
2023/07/23 11:59:14;;;;;;;5.90;3.27;;;24.70;99.90;;;;;;7274995;19;20255;-78
2023/07/23 12:01:40;;;;;;;5.97;3.10;;;24.90;99.90;;;;;;7306070;19;20199;-78
2023/07/23 12:04:07;;;;;;;6.60;3.00;;;25.10;99.90;;;;;;7283993;19;20181;-80
2023/07/23 12:06:35;;;;;;;6.70;2.97;;;25.30;99.90;;;;;;7293513;19;20194;-77
2023/07/23 12:09:06;;;;;;;8.63;3.08;;;25.40;99.90;;;;;;7284810;19;20241;-79
2023/07/23 12:11:32;;;;;;;6.55;2.78;;;25.40;99.90;;;;;;7300417;19;20210;-72
2023/07/23 12:14:06;;;;;;;6.65;2.90;;;25.40;99.90;;;;;;7285155;19;20221;-80
2023/07/23 12:16:49;;;;;;;7.68;3.20;;;25.90;99.90;;;;;;7287025;19;20205;-78
2023/07/23 12:19:20;;;;;;;6.00;3.00;;;26.30;99.90;;;;;;7264669;19;20193;-78
2023/07/23 12:21:54;;;;;;;7.10;3.25;;;26.10;99.90;;;;;;7294163;19;20197;-73
2023/07/23 12:24:22;;;;;;;5.53;2.80;;;25.80;99.90;;;;;;7280580;19;20975;-72
2023/07/23 12:26:58;;;;;;;5.05;2.80;;;25.70;99.90;;;;;;7278924;19;20181;-72
2023/07/23 12:29:26;;;;;;;5.50;2.88;;;25.70;99.90;;;;;;7279020;19;20246;-73
2023/07/23 12:32:15;;;;;;;5.85;2.92;;;25.60;99.90;;;;;;7283981;19;20188;-79
2023/07/23 12:34:46;;;;;;;7.65;3.15;;;25.80;99.90;;;;;;7283597;19;20189;-79
2023/07/23 12:37:15;;;;;;;6.05;2.90;;;26.20;99.90;;;;;;7273555;19;20607;-77
2023/07/23 12:39:42;;;;;;;7.18;3.20;;;26.50;99.90;;;;;;7303902;19;20184;-78
2023/07/23 12:42:09;;;;;;;7.63;3.67;;;26.20;99.90;;;;;;7283951;19;20209;-79
2023/07/23 12:44:34;;;;;;;6.75;3.30;;;26.00;99.90;;;;;;7283518;19;20189;-79
2023/07/23 12:47:00;;;;;;;7.55;3.70;;;25.70;99.90;;;;;;7283722;19;20722;-79